createdAt,value
2023-01-30T00:00:05.112Z,13.6
2023-01-30T00:05:05.146Z,14
2023-01-30T00:10:05.086Z,11.7
2023-01-30T00:15:05.084Z,14
2023-01-30T00:20:05.108Z,13.1
2023-01-30T00:25:05.227Z,14.2
2023-01-30T00:30:05.099Z,14.2
2023-01-30T00:35:05.093Z,13.6
2023-01-30T00:40:05.093Z,14.7
2023-01-30T00:45:05.084Z,14.4
2023-01-30T00:50:05.091Z,14.7
2023-01-30T00:55:05.087Z,14.1
2023-01-30T01:00:05.093Z,14.1
2023-01-30T01:05:05.096Z,15.1
2023-01-30T01:10:05.099Z,13.7
2023-01-30T01:15:05.103Z,13.3
2023-01-30T01:20:05.099Z,12.3
2023-01-30T01:25:05.089Z,13.8
2023-01-30T01:30:05.095Z,13.8
2023-01-30T01:35:05.088Z,14.1
2023-01-30T01:40:05.093Z,13.5
2023-01-30T01:45:05.107Z,14.6
2023-01-30T01:50:05.106Z,14.9
2023-01-30T01:55:05.102Z,13.6
2023-01-30T02:00:05.091Z,13.6
2023-01-30T02:05:05.161Z,14.3
2023-01-30T02:10:05.089Z,14.4
2023-01-30T02:15:05.083Z,13.9
2023-01-30T02:20:05.104Z,13.7
2023-01-30T02:25:05.087Z,14.7
2023-01-30T02:30:05.105Z,14.7
2023-01-30T02:35:05.084Z,14.2
2023-01-30T02:40:05.097Z,13.5
2023-01-30T02:45:05.088Z,14.3
2023-01-30T02:50:05.099Z,13.3
2023-01-30T02:55:05.084Z,14.6
2023-01-30T03:00:05.091Z,14.6
2023-01-30T03:05:05.089Z,13.7
2023-01-30T03:10:05.106Z,15.7
2023-01-30T03:15:05.093Z,14.8
2023-01-30T03:20:05.093Z,13.3
2023-01-30T03:25:05.090Z,12.8
2023-01-30T03:30:05.102Z,12.8
2023-01-30T03:35:05.092Z,13.3
2023-01-30T03:40:05.090Z,13.6
2023-01-30T03:45:05.091Z,13.9
2023-01-30T03:50:05.102Z,14.8
2023-01-30T03:55:05.084Z,13
2023-01-30T04:00:05.096Z,13
2023-01-30T04:05:05.081Z,14
2023-01-30T04:10:05.089Z,14.3
2023-01-30T04:15:05.094Z,13.4
2023-01-30T04:20:05.095Z,14.9
2023-01-30T04:25:05.087Z,13
2023-01-30T04:30:05.091Z,13
2023-01-30T04:35:05.084Z,13.2
2023-01-30T04:40:05.097Z,12.9
2023-01-30T04:45:05.097Z,11.5
2023-01-30T04:50:05.087Z,12
2023-01-30T04:55:05.082Z,10.9
2023-01-30T05:00:05.104Z,10.9
2023-01-30T05:05:05.081Z,9.4
2023-01-30T05:10:05.103Z,8.9
2023-01-30T05:15:05.087Z,8.2
2023-01-30T05:20:05.097Z,10.4
2023-01-30T05:25:05.100Z,10.1
2023-01-30T05:30:05.103Z,10.1
2023-01-30T05:35:05.092Z,10.7
2023-01-30T05:40:05.092Z,11.3
2023-01-30T05:45:05.087Z,10.3
2023-01-30T05:50:05.101Z,9.9
2023-01-30T05:55:05.095Z,10.2
2023-01-30T06:00:05.084Z,10.2
2023-01-30T06:05:05.100Z,10.5
2023-01-30T06:10:05.086Z,10.3
2023-01-30T06:15:05.087Z,10.4
2023-01-30T06:20:05.094Z,11.6
2023-01-30T06:25:05.087Z,12.3
2023-01-30T06:30:05.094Z,12.3
2023-01-30T06:35:05.087Z,10.3
2023-01-30T06:40:05.087Z,11.8
2023-01-30T06:45:05.182Z,11.7
2023-01-30T06:50:05.093Z,12.9
2023-01-30T06:55:05.133Z,12.5
2023-01-30T07:00:05.167Z,12.5
2023-01-30T07:05:05.096Z,11.9
2023-01-30T07:10:08.528Z,12.9
2023-01-30T07:15:05.110Z,11.6
2023-01-30T07:20:05.099Z,12.7
2023-01-30T07:25:05.092Z,12.9
2023-01-30T07:30:05.112Z,12.9
2023-01-30T07:35:06.045Z,12.6
2023-01-30T07:40:05.090Z,12.7
2023-01-30T07:45:05.096Z,12.9
2023-01-30T07:50:05.101Z,12.6
2023-01-30T07:55:05.086Z,13.4
2023-01-30T08:00:05.089Z,13.4
2023-01-30T08:05:06.217Z,12.7
2023-01-30T08:10:05.092Z,13
2023-01-30T08:15:05.091Z,11.5
2023-01-30T08:20:05.091Z,11.8
2023-01-30T08:25:05.091Z,13.1
2023-01-30T08:30:05.100Z,13.1
2023-01-30T08:35:05.102Z,11.7
2023-01-30T08:40:05.105Z,11.9
2023-01-30T08:45:05.088Z,12.2
2023-01-30T08:50:05.103Z,13.2
2023-01-30T08:55:05.097Z,11.7
2023-01-30T09:00:05.097Z,11.7
2023-01-30T09:05:05.099Z,12.5
2023-01-30T09:10:05.125Z,11.5
2023-01-30T09:15:05.097Z,10.2
2023-01-30T09:20:05.105Z,9
2023-01-30T09:25:05.112Z,8.8
2023-01-30T09:30:05.086Z,8.8
2023-01-30T09:35:05.099Z,8.9
2023-01-30T09:40:05.164Z,7.8
2023-01-30T09:45:05.097Z,7
2023-01-30T09:50:05.150Z,7.1
2023-01-30T09:55:05.094Z,5.5
2023-01-30T10:00:05.091Z,5.5
2023-01-30T10:05:05.142Z,5.4
2023-01-30T10:10:05.089Z,5.3
2023-01-30T10:15:05.099Z,5.1
2023-01-30T10:20:05.089Z,5.4
2023-01-30T10:25:05.092Z,5.1
2023-01-30T10:30:05.141Z,5.1
2023-01-30T10:35:05.093Z,4.8
2023-01-30T10:40:05.090Z,4.8
2023-01-30T10:45:05.149Z,5.5
2023-01-30T10:50:05.103Z,4.9
2023-01-30T10:55:05.087Z,5.1
2023-01-30T11:00:05.101Z,5.1
2023-01-30T11:05:05.081Z,4.5
2023-01-30T11:10:05.091Z,4.5
2023-01-30T11:15:05.096Z,5.1
2023-01-30T11:20:05.090Z,5.1
2023-01-30T11:25:05.082Z,4.6
2023-01-30T11:30:05.104Z,4.6
2023-01-30T11:35:05.094Z,4.6
2023-01-30T11:40:05.095Z,4.3
2023-01-30T11:45:16.985Z,4.6
2023-01-30T11:50:14.603Z,4.7
2023-01-30T11:55:05.177Z,4
2023-01-30T12:00:05.108Z,4
2023-01-30T12:05:05.119Z,3.8
2023-01-30T12:10:05.116Z,4.2
2023-01-30T12:15:05.115Z,4.2
2023-01-30T12:20:05.098Z,4.3
2023-01-30T12:25:05.102Z,3.3
2023-01-30T12:30:05.114Z,3.3
2023-01-30T12:35:05.109Z,3.1
2023-01-30T12:40:05.107Z,2.9
2023-01-30T12:45:05.119Z,3.4
2023-01-30T12:50:05.408Z,3
2023-01-30T12:55:05.196Z,2.9
2023-01-30T13:00:05.134Z,2.9
2023-01-30T13:05:05.172Z,2.7
2023-01-30T13:10:05.108Z,3.3
2023-01-30T13:15:05.114Z,2.6
2023-01-30T13:20:05.110Z,3
2023-01-30T13:25:05.113Z,3.2
2023-01-30T13:30:05.119Z,3.2
2023-01-30T13:35:05.131Z,3
2023-01-30T13:40:05.105Z,2.9
2023-01-30T13:45:05.130Z,3.3
2023-01-30T13:50:05.117Z,3.3
2023-01-30T13:55:05.175Z,3
2023-01-30T14:00:05.122Z,3
2023-01-30T14:05:05.088Z,3.4
2023-01-30T14:10:05.086Z,3.2
2023-01-30T14:15:05.110Z,3.3
2023-01-30T14:20:05.091Z,2.6
2023-01-30T14:25:05.092Z,3.8
2023-01-30T14:30:05.099Z,3.8
2023-01-30T14:35:05.097Z,3.2
2023-01-30T14:40:05.098Z,3
2023-01-30T14:45:05.100Z,2.4
2023-01-30T14:50:05.079Z,3.8
2023-01-30T14:55:05.096Z,2.4
2023-01-30T15:00:16.396Z,2.4
2023-01-30T15:05:05.103Z,2.2
2023-01-30T15:10:05.099Z,2.3
2023-01-30T15:15:05.108Z,2.5
2023-01-30T15:20:05.094Z,2.6
2023-01-30T15:25:05.095Z,2.8
2023-01-30T15:30:05.152Z,2.8
2023-01-30T15:35:05.102Z,2.9
2023-01-30T15:40:05.183Z,2.8
2023-01-30T15:45:05.085Z,3
2023-01-30T15:50:05.100Z,2.7
2023-01-30T15:55:05.097Z,2.4
2023-01-30T16:00:05.091Z,2.4
2023-01-30T16:05:05.110Z,2.6
2023-01-30T16:10:07.533Z,2.4
2023-01-30T16:15:18.686Z,3.8
2023-01-30T16:20:05.085Z,4
2023-01-30T16:25:05.097Z,2.9
2023-01-30T16:30:07.459Z,2.9
2023-01-30T16:35:05.110Z,3.2
2023-01-30T16:40:05.155Z,3.3
2023-01-30T16:45:05.098Z,3.1
2023-01-30T16:50:05.140Z,3.7
2023-01-30T16:55:05.105Z,3.4
2023-01-30T17:00:05.080Z,3.4
2023-01-30T17:05:05.105Z,4.1
2023-01-30T17:10:05.093Z,3.1
2023-01-30T17:15:05.105Z,3.9
2023-01-30T17:20:05.104Z,3.8
2023-01-30T17:25:05.106Z,3.8
2023-01-30T17:30:05.097Z,3.8
2023-01-30T17:35:05.086Z,3.6
2023-01-30T17:40:05.088Z,2.9
2023-01-30T17:45:05.092Z,3.7
2023-01-30T17:50:05.090Z,2.9
2023-01-30T17:55:05.108Z,2.9
2023-01-30T18:00:05.102Z,2.9
2023-01-30T18:05:05.134Z,3.3
2023-01-30T18:10:05.087Z,3.5
2023-01-30T18:15:05.106Z,3.3
2023-01-30T18:20:05.101Z,3.1
2023-01-30T18:25:05.149Z,3
2023-01-30T18:30:05.112Z,3
2023-01-30T18:35:05.104Z,2.9
2023-01-30T18:40:05.096Z,3.2
2023-01-30T18:45:05.119Z,2.8
2023-01-30T18:50:05.094Z,3.3
2023-01-30T18:55:05.111Z,4.1
2023-01-30T19:00:05.103Z,4.1
2023-01-30T19:05:05.100Z,2.7
2023-01-30T19:10:05.099Z,3
2023-01-30T19:15:05.097Z,3.6
2023-01-30T19:20:05.100Z,3.2
2023-01-30T19:25:05.097Z,3.9
2023-01-30T19:30:05.112Z,3.9
2023-01-30T19:35:05.097Z,3.3
2023-01-30T19:40:05.089Z,4
2023-01-30T19:45:05.101Z,3.8
2023-01-30T19:50:05.087Z,3.5
2023-01-30T19:55:05.089Z,4.3
2023-01-30T20:00:05.091Z,4.3
2023-01-30T20:05:05.156Z,4
2023-01-30T20:10:05.102Z,4.1
2023-01-30T20:15:05.108Z,3.4
2023-01-30T20:20:05.097Z,3.7
2023-01-30T20:25:05.095Z,3.7
2023-01-30T20:30:05.106Z,3.7
2023-01-30T20:35:05.093Z,4.5
2023-01-30T20:40:05.260Z,4.1
2023-01-30T20:45:05.093Z,3.4
2023-01-30T20:50:05.090Z,4.2
2023-01-30T20:55:05.102Z,3.4
2023-01-30T21:00:05.110Z,3.4
2023-01-30T21:05:05.110Z,3.6
2023-01-30T21:10:05.097Z,3.7
2023-01-30T21:15:05.112Z,3
2023-01-30T21:20:05.095Z,3.5
2023-01-30T21:25:05.088Z,3.5
2023-01-30T21:30:05.091Z,3.5
2023-01-30T21:35:05.100Z,2.9
2023-01-30T21:40:05.093Z,3.9
2023-01-30T21:45:05.089Z,3.5
2023-01-30T21:50:05.096Z,3.2
2023-01-30T21:55:05.088Z,3.2
2023-01-30T22:00:05.091Z,3.2
2023-01-30T22:05:05.099Z,3.4
2023-01-30T22:10:05.102Z,3.3
2023-01-30T22:15:05.106Z,2.8
2023-01-30T22:20:05.091Z,2.9
2023-01-30T22:25:05.144Z,3.4
2023-01-30T22:30:05.099Z,3.4
2023-01-30T22:35:05.085Z,3.8
2023-01-30T22:40:05.091Z,3.3
2023-01-30T22:45:05.090Z,3.8
2023-01-30T22:50:05.100Z,3.7
2023-01-30T22:55:05.091Z,4
2023-01-30T23:00:05.099Z,4
2023-01-30T23:05:05.086Z,3.9
2023-01-30T23:10:05.091Z,4.9
2023-01-30T23:15:05.092Z,5
2023-01-30T23:20:05.093Z,4.5
2023-01-30T23:25:05.127Z,4.3
2023-01-30T23:30:05.093Z,4.3
2023-01-30T23:35:05.106Z,4.6
2023-01-30T23:40:05.085Z,4.8
2023-01-30T23:45:05.102Z,4.8
2023-01-30T23:50:05.090Z,5.1
2023-01-30T23:55:05.087Z,4.4
